Time;durP1;ratioP1;P1;durP2;ratioP2;P2;SDS_P1;SDS_P2;PMS_P1;PMS_P2;Temp;Humidity;BMP_temperature;BMP_pressure;BME280_temperature;BME280_humidity;BME280_pressure;Samples;Min_cycle;Max_cycle;Signal;HPM_P1;HPM_P2
2022/10/14 00:01:12;;;;;;;12.90;5.63;;;;;;;4.78;100.00;100695.95;1712536;84;21071;-77
2022/10/14 00:03:40;;;;;;;15.97;5.93;;;;;;;4.77;100.00;100698.28;1712738;84;21614;-77
2022/10/14 00:06:14;;;;;;;13.50;6.00;;;;;;;4.73;100.00;100703.86;1713215;84;21079;-76
2022/10/14 00:08:41;;;;;;;14.03;5.77;;;;;;;4.71;100.00;100699.58;1632266;88;21015;-76
2022/10/14 00:11:15;;;;;;;12.60;5.37;;;;;;;4.69;100.00;100697.04;1628509;88;21607;-77
2022/10/14 00:13:43;;;;;;;12.10;5.50;;;;;;;4.69;100.00;100701.52;1631380;88;21103;-76
2022/10/14 00:16:27;;;;;;;14.33;5.10;;;;;;;4.68;100.00;100701.17;1631285;88;21048;-77
2022/10/14 00:18:56;;;;;;;12.37;5.53;;;;;;;4.71;100.00;100703.13;1640263;87;21076;-78
2022/10/14 00:21:23;;;;;;;13.37;6.03;;;;;;;4.74;100.00;100694.84;1640222;87;21057;-77
2022/10/14 00:23:49;;;;;;;11.90;5.27;;;;;;;4.79;100.00;100694.50;1640440;87;21590;-78
2022/10/14 00:26:23;;;;;;;14.67;5.67;;;;;;;4.85;100.00;100689.14;1640207;87;21007;-77
2022/10/14 00:28:51;;;;;;;12.37;5.23;;;;;;;4.90;100.00;100695.85;1618351;89;21081;-76
2022/10/14 00:31:18;;;;;;;12.20;5.67;;;;;;;4.95;100.00;100686.97;1618228;89;21077;-78
2022/10/14 00:33:46;;;;;;;14.47;6.33;;;;;;;5.00;100.00;100687.13;1594211;90;21089;-77
2022/10/14 00:36:16;;;;;;;13.53;6.20;;;;;;;5.02;100.00;100684.67;1593984;89;21121;-78
2022/10/14 00:38:46;;;;;;;13.57;6.13;;;;;;;5.05;100.00;100676.41;1594395;90;21088;-77
2022/10/14 00:41:19;;;;;;;13.73;5.77;;;;;;;5.07;100.00;100674.45;1594352;90;21144;-78
2022/10/14 00:44:01;;;;;;;16.70;5.97;;;;;;;5.07;100.00;100672.27;1585924;90;21575;-77
2022/10/14 00:46:33;;;;;;;13.13;5.60;;;;;;;5.06;100.00;100666.53;1596415;90;21086;-77
2022/10/14 00:49:16;;;;;;;15.23;5.80;;;;;;;5.04;100.00;100665.30;1543426;93;21047;-77
2022/10/14 00:51:57;;;;;;;14.93;6.57;;;;;;;5.02;100.00;100661.89;1543216;93;21103;-77
2022/10/14 00:54:31;;;;;;;15.33;6.23;;;;;;;5.00;100.00;100663.84;1538823;92;21531;-78
2022/10/14 00:56:58;;;;;;;14.03;6.37;;;;;;;5.01;100.00;100665.56;1488383;95;21138;-76
2022/10/14 00:59:25;;;;;;;15.43;7.03;;;;;;;5.01;100.00;100661.55;1487797;96;21092;-77
2022/10/14 01:01:51;;;;;;;16.30;6.90;;;;;;;5.02;100.00;100657.87;1489719;96;21141;-77
2022/10/14 01:04:18;;;;;;;18.57;7.43;;;;;;;5.03;100.00;100658.25;1496844;93;21044;-77
2022/10/14 01:07:05;;;;;;;18.40;7.93;;;;;;;5.05;100.00;100656.80;1548185;93;21099;-78
2022/10/14 01:09:42;;;;;;;17.47;7.10;;;;;;;5.07;100.00;100648.14;1548542;91;21577;-78
2022/10/14 01:12:24;;;;;;;20.37;7.63;;;;;;;5.08;100.00;100647.15;1548144;93;21092;-77
2022/10/14 01:15:21;;;;;;;17.73;7.30;;;;;;;5.09;100.00;100649.72;1551206;91;21576;-76
2022/10/14 01:18:05;;;;;;;19.93;7.93;;;;;;;5.08;100.00;100646.69;1567901;90;21122;-78
2022/10/14 01:20:58;;;;;;;21.77;8.57;;;;;;;5.09;100.00;100653.73;1565947;91;21101;-77
2022/10/14 01:23:30;;;;;;;18.77;7.53;;;;;;;5.07;100.00;100648.14;1566287;90;21095;-77
2022/10/14 01:26:17;;;;;;;21.73;8.13;;;;;;;5.05;100.00;100649.59;1564875;87;21079;-77
2022/10/14 01:29:13;;;;;;;21.77;8.50;;;;;;;5.03;100.00;100643.97;1564460;92;21127;-78
2022/10/14 01:31:45;;;;;;;23.53;8.30;;;;;;;5.02;100.00;100647.16;1564386;92;21116;-77
2022/10/14 01:34:13;;;;;;;21.70;8.97;;;;;;;5.02;100.00;100651.17;1544121;93;21084;-78
2022/10/14 01:36:57;;;;;;;24.97;9.20;;;;;;;5.04;100.00;100653.23;1544056;93;21139;-77
2022/10/14 01:39:32;;;;;;;22.07;9.53;;;;;;;5.07;100.00;100645.46;1523932;93;21630;-77
2022/10/14 01:42:12;;;;;;;21.97;8.67;;;;;;;5.10;100.00;100640.71;1542729;92;21105;-78
2022/10/14 01:44:42;;;;;;;23.67;9.13;;;;;;;5.13;100.00;100643.63;1542915;92;21088;-77
2022/10/14 01:47:09;;;;;;;23.90;9.50;;;;;;;5.18;100.00;100645.95;1540892;93;21047;-77
2022/10/14 01:49:45;;;;;;;24.90;9.57;;;;;;;5.22;100.00;100647.41;1541280;93;21087;-78
2022/10/14 01:52:21;;;;;;;23.67;9.23;;;;;;;5.27;100.00;100647.40;1539175;92;21106;-77
2022/10/14 01:54:51;;;;;;;23.90;9.83;;;;;;;5.32;100.00;100653.75;1512887;93;21070;-77
2022/10/14 01:57:23;;;;;;;24.67;10.27;;;;;;;5.39;100.00;100651.44;1564307;90;21567;-77
2022/10/14 01:59:51;;;;;;;22.20;9.80;;;;;;;5.45;100.00;100654.95;1561820;92;21082;-78
2022/10/14 02:02:17;;;;;;;22.27;9.30;;;;;;;5.51;100.00;100641.91;1557747;92;21548;-78
2022/10/14 02:04:45;;;;;;;22.70;10.10;;;;;;;5.57;100.00;100639.22;1557762;92;21149;-78
2022/10/14 02:07:20;;;;;;;20.03;9.50;;;;;;;5.63;100.00;100633.37;1557851;92;21106;-77
2022/10/14 02:10:17;;;;;;;20.47;8.73;;;;;;;5.70;100.00;100637.72;1557683;92;21094;-77
2022/10/14 02:13:24;;;;;;;19.77;8.73;;;;;;;5.74;100.00;100631.15;1557760;92;21127;-78
2022/10/14 02:16:19;;;;;;;17.93;8.80;;;;;;;5.79;100.00;100632.09;1557856;92;21118;-77
2022/10/14 02:19:07;;;;;;;16.10;7.70;;;;;;;5.83;100.00;100629.55;1557927;92;21090;-77
2022/10/14 02:21:43;;;;;;;18.60;7.90;;;;;;;5.86;100.00;100627.93;1557598;92;21175;-77
2022/10/14 02:24:41;;;;;;;18.93;7.93;;;;;;;5.88;100.00;100620.13;1558065;92;21055;-78
2022/10/14 02:27:14;;;;;;;17.70;7.47;;;;;;;5.92;100.00;100626.59;1534252;93;21085;-77
2022/10/14 02:29:44;;;;;;;17.43;7.27;;;;;;;5.93;100.00;100626.94;1563468;91;21161;-77
2022/10/14 02:32:12;;;;;;;13.83;6.83;;;;;;;5.96;100.00;100630.75;1615125;88;21064;-78
2022/10/14 02:34:38;;;;;;;16.40;7.03;;;;;;;5.98;100.00;100628.79;1595959;89;21016;-77
2022/10/14 02:37:07;;;;;;;18.93;7.53;;;;;;;6.02;100.00;100624.86;1616429;89;21112;-77
2022/10/14 02:39:41;;;;;;;18.20;7.80;;;;;;;6.06;100.00;100623.16;1616815;89;21069;-77
2022/10/14 02:42:08;;;;;;;18.40;7.63;;;;;;;6.08;100.00;100625.71;1617366;89;21361;-77
2022/10/14 02:44:34;;;;;;;18.93;7.70;;;;;;;6.10;100.00;100622.91;1602427;87;20989;-77
2022/10/14 02:47:01;;;;;;;17.90;7.60;;;;;;;6.12;100.00;100631.17;1613479;89;21017;-78
2022/10/14 02:49:29;;;;;;;17.70;7.40;;;;;;;6.14;100.00;100627.02;1619796;89;21112;-76
2022/10/14 02:51:56;;;;;;;14.37;6.13;;;;;;;6.15;100.00;100625.56;1647052;86;21077;-77
2022/10/14 02:54:22;;;;;;;15.73;6.17;;;;;;;6.18;100.00;100625.78;1683667;85;21019;-76
2022/10/14 02:56:49;;;;;;;14.73;6.57;;;;;;;6.20;100.00;100626.03;1696449;83;21096;-77
2022/10/14 02:59:15;;;;;;;14.13;6.67;;;;;;;6.22;100.00;100629.44;1726558;82;21044;-76
2022/10/14 03:01:43;;;;;;;19.57;7.67;;;;;;;6.26;100.00;100623.31;1745601;82;21008;-77
2022/10/14 03:04:09;;;;;;;21.13;7.90;;;;;;;6.30;100.00;100629.28;1776396;80;20994;-78
2022/10/14 03:06:38;;;;;;;23.40;8.73;;;;;;;6.32;100.00;100622.81;1793373;80;21055;-79
2022/10/14 03:09:05;;;;;;;24.87;9.43;;;;;;;6.34;100.00;100628.03;1768205;80;21104;-77
2022/10/14 03:11:33;;;;;;;21.47;8.57;;;;;;;6.35;100.00;100629.75;1791666;80;21057;-77
2022/10/14 03:14:02;;;;;;;22.40;9.07;;;;;;;6.35;100.00;100625.72;1791518;80;21037;-77
2022/10/14 03:16:29;;;;;;;19.97;8.07;;;;;;;6.34;100.00;100624.00;1791488;80;21026;-77
2022/10/14 03:18:56;;;;;;;17.33;7.93;;;;;;;6.33;100.00;100622.31;1791542;80;21491;-77
2022/10/14 03:21:24;;;;;;;17.77;7.60;;;;;;;6.33;100.00;100620.47;1788077;80;21483;-78
2022/10/14 03:23:51;;;;;;;15.87;6.80;;;;;;;6.33;100.00;100617.78;1791808;80;21069;-77
2022/10/14 03:26:20;;;;;;;15.87;6.83;;;;;;;6.33;100.00;100617.78;1791345;80;21073;-77
2022/10/14 03:28:47;;;;;;;17.77;6.87;;;;;;;6.32;100.00;100614.76;1791949;80;20998;-78
2022/10/14 03:31:15;;;;;;;15.47;7.00;;;;;;;6.33;100.00;100625.00;1731879;82;21022;-78
2022/10/14 03:33:44;;;;;;;16.43;7.57;;;;;;;6.32;100.00;100625.97;1727944;83;21534;-77
2022/10/14 03:36:12;;;;;;;17.07;7.67;;;;;;;6.31;100.00;100622.94;1724604;83;21073;-78
2022/10/14 03:38:41;;;;;;;19.40;8.13;;;;;;;6.31;100.00;100630.50;1728267;83;21518;-77
2022/10/14 03:41:08;;;;;;;18.23;8.23;;;;;;;6.30;100.00;100626.09;1726550;83;21081;-78
2022/10/14 03:43:35;;;;;;;18.70;8.53;;;;;;;6.29;100.00;100625.75;1726760;83;20998;-78
2022/10/14 03:46:01;;;;;;;17.40;7.50;;;;;;;6.24;100.00;100626.13;1702550;83;21010;-78
2022/10/14 03:48:28;;;;;;;18.00;7.80;;;;;;;6.24;100.00;100625.28;1726235;83;21089;-78
2022/10/14 03:50:57;;;;;;;21.00;6.80;;;;;;;6.23;100.00;100632.50;1726569;83;21483;-79
2022/10/14 03:53:24;;;;;;;19.13;6.80;;;;;;;6.22;100.00;100628.09;1726524;83;21226;-78
2022/10/14 03:55:51;;;;;;;21.47;7.50;;;;;;;6.23;100.00;100628.47;1726528;83;20950;-77
2022/10/14 03:58:19;;;;;;;18.93;8.17;;;;;;;6.24;100.00;100630.66;1726435;83;21073;-78
2022/10/14 04:00:48;;;;;;;18.80;7.00;;;;;;;6.26;100.00;100636.24;1733022;83;21042;-78
2022/10/14 04:03:17;;;;;;;16.27;7.23;;;;;;;6.29;100.00;100632.47;1730589;83;21105;-78
2022/10/14 04:05:44;;;;;;;19.73;8.67;;;;;;;6.30;100.00;100634.66;1734299;83;21038;-78
2022/10/14 04:08:13;;;;;;;18.50;7.23;;;;;;;6.31;100.00;100629.66;1730920;83;21527;-78
2022/10/14 04:10:43;;;;;;;18.63;7.27;;;;;;;6.31;100.00;100635.03;1734077;83;21070;-78
2022/10/14 04:13:12;;;;;;;20.20;8.97;;;;;;;6.34;100.00;100634.75;1734299;83;21068;-76
2022/10/14 04:15:40;;;;;;;18.47;7.77;;;;;;;6.34;100.00;100631.59;1734297;83;21045;-78
2022/10/14 04:18:17;;;;;;;17.23;7.23;;;;;;;6.35;100.00;100634.63;1730626;83;21104;-79
2022/10/14 04:20:44;;;;;;;18.37;7.33;;;;;;;6.37;100.00;100634.00;1734473;83;21005;-78
2022/10/14 04:23:11;;;;;;;17.13;6.73;;;;;;;6.40;100.00;100630.22;1734436;82;21074;-77
2022/10/14 04:25:39;;;;;;;18.13;6.90;;;;;;;6.44;100.00;100625.77;1734430;83;21077;-78
2022/10/14 04:28:07;;;;;;;18.87;7.67;;;;;;;6.46;100.00;100625.65;1762435;80;20978;-77
2022/10/14 04:30:36;;;;;;;16.50;7.63;;;;;;;6.47;100.00;100624.69;1733891;82;21051;-79
2022/10/14 04:33:05;;;;;;;20.03;8.13;;;;;;;6.50;100.00;100626.23;1734184;83;21084;-78
2022/10/14 04:35:32;;;;;;;28.50;12.83;;;;;;;6.51;100.00;100626.61;1734130;83;21047;-78
2022/10/14 04:38:01;;;;;;;27.97;12.40;;;;;;;6.52;100.00;100628.33;1734025;83;21058;-78
2022/10/14 04:40:29;;;;;;;23.60;11.50;;;;;;;6.53;100.00;100628.67;1733891;83;21000;-81
2022/10/14 04:42:58;;;;;;;34.97;17.67;;;;;;;6.54;100.00;100628.55;1734048;83;21078;-82
2022/10/14 04:45:31;;;;;;;21.00;10.03;;;;;;;6.55;100.00;100631.61;1707265;83;21079;-79
2022/10/14 04:47:59;;;;;;;22.40;8.70;;;;;;;6.57;100.00;100633.67;1733858;83;21091;-79
2022/10/14 04:50:26;;;;;;;23.77;8.40;;;;;;;6.61;100.00;100634.26;1734190;81;21521;-81
2022/10/14 04:53:13;;;;;;;24.47;9.00;;;;;;;6.63;100.00;100639.84;1730535;83;21050;-81
2022/10/14 04:55:45;;;;;;;24.17;8.90;;;;;;;6.67;100.00;100642.28;1717209;83;20995;-81
2022/10/14 04:58:12;;;;;;;21.47;9.30;;;;;;;6.70;100.00;100640.19;1733448;83;21117;-82
2022/10/14 05:00:41;;;;;;;23.27;9.40;;;;;;;6.73;100.00;100637.24;1732844;83;21513;-82
2022/10/14 05:03:12;;;;;;;25.63;10.33;;;;;;;6.77;100.00;100641.86;1728169;83;21051;-78
2022/10/14 05:05:39;;;;;;;24.40;9.77;;;;;;;6.80;100.00;100638.92;1731801;83;21023;-80
2022/10/14 05:08:06;;;;;;;25.47;10.03;;;;;;;6.83;100.00;100640.84;1764105;79;21037;-77
2022/10/14 05:10:37;;;;;;;23.83;10.00;;;;;;;6.86;100.00;100638.38;1785224;78;20971;-79
2022/10/14 05:13:06;;;;;;;29.93;14.10;;;;;;;6.89;100.00;100642.62;1749572;81;21028;-79
2022/10/14 05:15:35;;;;;;;30.43;13.77;;;;;;;6.94;100.00;100647.11;1737383;81;21042;-77
2022/10/14 05:18:04;;;;;;;57.80;29.40;;;;;;;6.96;100.00;100644.67;1763689;81;21067;-78
2022/10/14 05:20:32;;;;;;;85.10;45.10;;;;;;;7.01;100.00;100643.78;1762985;80;21090;-78
2022/10/14 05:23:00;;;;;;;43.27;23.23;;;;;;;7.04;100.00;100646.17;1761979;79;21031;-81
2022/10/14 05:25:27;;;;;;;83.93;49.00;;;;;;;7.09;100.00;100644.95;1762620;81;21065;-79
2022/10/14 05:27:54;;;;;;;60.20;35.77;;;;;;;7.11;100.00;100641.13;1759871;81;21039;-78
2022/10/14 05:30:21;;;;;;;82.70;42.90;;;;;;;7.14;100.00;100656.16;1761972;81;21063;-78
2022/10/14 05:32:50;;;;;;;28.83;16.10;;;;;;;7.16;100.00;100648.80;1759973;81;21027;-77
2022/10/14 05:35:18;;;;;;;96.27;44.20;;;;;;;7.20;100.00;100654.27;1778783;80;21010;-78
2022/10/14 05:37:45;;;;;;;67.87;34.87;;;;;;;7.26;100.00;100656.90;1748607;82;20990;-79
2022/10/14 05:40:12;;;;;;;34.57;20.63;;;;;;;7.30;100.00;100655.16;1748175;81;20946;-78
2022/10/14 05:42:38;;;;;;;28.07;14.07;;;;;;;7.33;100.00;100656.25;1745371;82;20956;-76
2022/10/14 05:45:06;;;;;;;24.97;11.47;;;;;;;7.38;100.00;100662.55;1723816;83;21592;-76
2022/10/14 05:47:35;;;;;;;25.23;9.90;;;;;;;7.42;100.00;100664.00;1793618;80;21017;-79
2022/10/14 05:50:05;;;;;;;23.10;8.93;;;;;;;7.45;100.00;100662.87;1793680;80;21065;-78
2022/10/14 05:52:34;;;;;;;24.77;8.03;;;;;;;7.49;100.00;100667.86;1790448;80;21444;-77
2022/10/14 05:55:01;;;;;;;23.27;7.80;;;;;;;7.52;100.00;100671.59;1785547;80;20962;-77
2022/10/14 05:57:29;;;;;;;19.23;8.90;;;;;;;7.57;100.00;100668.00;1786032;78;21018;-77
2022/10/14 05:59:55;;;;;;;22.33;8.97;;;;;;;7.62;100.00;100664.08;1794351;80;21476;-78
2022/10/14 06:02:23;;;;;;;24.07;9.83;;;;;;;7.67;100.00;100665.86;1753818;80;21027;-80
2022/10/14 06:04:50;;;;;;;61.00;33.80;;;;;;;7.67;100.00;100665.86;1765007;81;20988;-80
2022/10/14 06:07:18;;;;;;;30.27;13.17;;;;;;;7.67;100.00;100668.05;1764491;81;21026;-82
2022/10/14 06:09:45;;;;;;;24.10;10.03;;;;;;;7.69;100.00;100672.80;1778912;81;21082;-80
2022/10/14 06:12:13;;;;;;;32.53;15.83;;;;;;;7.73;100.00;100673.38;1780004;81;21054;-78
2022/10/14 06:14:42;;;;;;;26.07;11.10;;;;;;;7.78;100.00;100668.44;1779264;81;21104;-81
2022/10/14 06:17:11;;;;;;;26.10;10.30;;;;;;;7.87;100.00;100680.22;1767331;81;21041;-78
2022/10/14 06:19:39;;;;;;;23.50;9.33;;;;;;;7.93;100.00;100670.23;1757924;81;21491;-79
2022/10/14 06:22:07;;;;;;;19.03;8.70;;;;;;;8.03;100.00;100664.88;1774216;81;21011;-80
2022/10/14 06:24:34;;;;;;;25.23;9.13;;;;;;;8.11;100.00;100669.05;1766028;81;20992;-78
2022/10/14 06:27:01;;;;;;;23.57;9.70;;;;;;;8.18;100.00;100667.03;1767373;80;21011;-78
2022/10/14 06:29:36;;;;;;;21.57;8.50;;;;;;;8.24;100.00;100667.45;1764366;81;21014;-81
2022/10/14 06:31:57;;;;;;;17.67;8.50;;;;;;;8.29;100.00;100670.59;1780767;80;21053;-76
2022/10/14 06:34:24;;;;;;;22.73;9.07;;;;;;;8.33;100.00;100672.00;1769813;81;21027;-82
2022/10/14 06:36:51;;;;;;;17.07;7.87;;;;;;;8.39;100.00;100676.80;1781008;81;20990;-78
2022/10/14 06:39:17;;;;;;;18.87;8.70;;;;;;;8.44;100.00;100681.31;1769705;81;20967;-79
2022/10/14 06:41:44;;;;;;;18.77;7.93;;;;;;;8.49;100.00;100683.09;1780443;81;21022;-77
2022/10/14 06:44:14;;;;;;;14.30;7.07;;;;;;;8.54;100.00;100686.21;1768444;81;21057;-75
2022/10/14 06:46:42;;;;;;;18.97;7.03;;;;;;;8.60;100.00;100684.78;1782615;81;20955;-80
2022/10/14 06:49:08;;;;;;;18.53;7.07;;;;;;;8.67;100.00;100683.22;1759691;81;21029;-80
2022/10/14 06:51:37;;;;;;;17.60;6.83;;;;;;;8.76;100.00;100691.45;1780670;80;20987;-79
2022/10/14 06:54:04;;;;;;;17.60;6.27;;;;;;;8.82;100.00;100690.86;1781791;80;21006;-77
2022/10/14 06:56:32;;;;;;;16.35;6.75;;;;;;;8.87;100.00;100691.29;1759952;80;21500;-75
2022/10/14 06:58:59;;;;;;;17.73;6.77;;;;;;;8.93;100.00;100696.96;1748881;82;21034;-77
2022/10/14 07:01:35;;;;;;;18.35;8.33;;;;;;;8.99;100.00;100697.38;1749961;82;21018;-80
2022/10/14 07:04:06;;;;;;;19.23;7.43;;;;;;;9.05;100.00;100703.05;1748597;82;21038;-79
2022/10/14 07:06:36;;;;;;;20.97;7.42;;;;;;;9.08;100.00;100705.95;1749114;82;21131;-77
2022/10/14 07:09:03;;;;;;;19.87;7.37;;;;;;;9.12;100.00;100700.64;1749472;82;21010;-77
2022/10/14 07:11:32;;;;;;;18.07;7.17;;;;;;;9.18;100.00;100707.30;1750032;82;21018;-78
2022/10/14 07:13:59;;;;;;;20.60;6.28;;;;;;;9.25;100.00;100709.25;1749288;82;21548;-77
2022/10/14 07:16:27;;;;;;;14.83;6.35;;;;;;;9.33;100.00;100707.66;1749067;82;21078;-76
2022/10/14 07:18:55;;;;;;;15.80;5.97;;;;;;;9.40;100.00;100716.88;1748780;82;20983;-76
2022/10/14 07:21:24;;;;;;;14.38;5.70;;;;;;;9.45;100.00;100716.78;1748273;82;21031;-76
2022/10/14 07:23:50;;;;;;;15.80;5.95;;;;;;;9.51;100.00;100720.77;1748451;82;21014;-77
2022/10/14 07:26:17;;;;;;;14.23;6.00;;;;;;;9.55;100.00;100722.16;1731315;82;20999;-76
2022/10/14 07:28:44;;;;;;;12.85;6.20;;;;;;;9.59;100.00;100726.26;1735576;82;21519;-77
2022/10/14 07:31:12;;;;;;;16.75;6.80;;;;;;;9.63;100.00;100722.76;1726713;83;21863;-77
2022/10/14 07:33:40;;;;;;;15.98;7.28;;;;;;;9.69;100.00;100724.88;1722973;83;21050;-76
2022/10/14 07:36:11;;;;;;;18.23;7.72;;;;;;;9.77;100.00;100733.07;1743887;80;21061;-80
2022/10/14 07:38:38;;;;;;;14.33;6.10;;;;;;;9.83;100.00;100732.48;1753585;82;21014;-75
2022/10/14 07:41:16;;;;;;;17.57;6.67;;;;;;;9.91;100.00;100733.59;1752986;82;20990;-74
2022/10/14 07:43:46;;;;;;;19.42;7.37;;;;;;;9.96;100.00;100737.54;1722789;83;21079;-81
2022/10/14 07:46:13;;;;;;;16.65;7.62;;;;;;;10.05;100.00;100742.55;1722965;83;21126;-87
2022/10/14 07:48:40;;;;;;;16.07;6.92;;;;;;;10.11;100.00;100741.95;1722619;83;21537;-84
2022/10/14 07:51:08;;;;;;;14.10;7.05;;;;;;;10.14;100.00;100745.69;1723531;83;21047;-85
2022/10/14 07:53:36;;;;;;;14.55;6.67;;;;;;;10.18;100.00;100748.45;1723229;83;21036;-83
2022/10/14 07:56:03;;;;;;;16.65;6.37;;;;;;;10.26;100.00;100749.88;1744110;82;21021;-76
2022/10/14 07:58:30;;;;;;;12.28;5.30;;;;;;;10.36;100.00;100749.03;1725911;83;21160;-73
2022/10/14 08:00:58;;;;;;;13.05;5.85;;;;;;;10.46;100.00;100752.49;1792151;80;21070;-76
2022/10/14 08:03:25;;;;;;;16.48;5.97;;;;;;;10.55;100.00;100755.66;1755406;82;21041;-75
2022/10/14 08:06:01;;;;;;;13.60;5.72;;;;;;;10.62;100.00;100755.39;1754330;81;21034;-75
2022/10/14 08:08:28;;;;;;;13.15;5.85;;;;;;;10.69;100.00;100754.23;1722799;81;21651;-77
2022/10/14 08:11:09;;;;;;;14.38;6.28;;;;;;;10.78;100.00;100756.52;1734962;83;21038;-78
2022/10/14 08:13:36;;;;;;;15.95;6.03;;;;;;;10.87;100.00;100756.09;1693838;84;21511;-81
2022/10/14 08:16:19;;;;;;;12.37;5.30;;;;;;;10.95;100.00;100758.38;1696785;81;21495;-78
2022/10/14 08:18:47;;;;;;;14.83;5.85;;;;;;;11.02;100.00;100758.61;1641296;87;21620;-79
2022/10/14 08:21:16;;;;;;;12.88;5.58;;;;;;;11.09;100.00;100766.45;1674407;83;21182;-78
2022/10/14 08:23:43;;;;;;;10.53;5.17;;;;;;;11.16;100.00;100759.91;1710500;84;21117;-82
2022/10/14 08:26:24;;;;;;;9.70;5.12;;;;;;;11.21;100.00;100769.77;1710486;84;21054;-79
2022/10/14 08:28:51;;;;;;;12.63;5.72;;;;;;;11.27;100.00;100762.86;1673475;86;21064;-80
2022/10/14 08:31:19;;;;;;;14.53;5.50;;;;;;;11.34;100.00;100771.53;1709290;84;21090;-79
2022/10/14 08:33:46;;;;;;;15.95;6.47;;;;;;;11.39;100.00;100772.42;1709578;84;21066;-80
2022/10/14 08:36:13;;;;;;;15.25;6.35;;;;;;;11.45;100.00;100768.23;1709766;84;21109;-79
2022/10/14 08:38:41;;;;;;;16.62;6.40;;;;;;;11.45;100.00;100778.55;1709508;84;21551;-80
2022/10/14 08:41:32;;;;;;;16.00;6.00;;;;;;;11.43;100.00;100778.38;1735126;82;21052;-79
2022/10/14 08:44:43;;;;;;;19.10;6.80;;;;;;;11.38;100.00;100789.19;1720612;82;21025;-81
2022/10/14 08:47:14;;;;;;;14.73;6.03;;;;;;;11.35;100.00;100798.97;1706901;82;21763;-77
2022/10/14 08:50:08;;;;;;;14.75;6.60;;;;;;;11.30;100.00;100801.81;1708401;82;21029;-80
2022/10/14 08:52:39;;;;;;;17.17;6.67;;;;;;;11.32;100.00;100801.98;1708518;82;21174;-80
2022/10/14 08:55:35;;;;;;;16.05;6.30;;;;;;;11.41;100.00;100797.48;1711271;83;21038;-81
2022/10/14 08:58:32;;;;;;;18.77;6.53;;;;;;;11.51;100.00;100796.02;1707666;83;21123;-79
2022/10/14 09:01:08;;;;;;;19.48;7.80;;;;;;;11.60;100.00;100799.15;1657308;85;21033;-74
2022/10/14 09:03:35;;;;;;;15.55;6.85;;;;;;;11.72;100.00;100789.74;1651577;85;21059;-74
2022/10/14 09:06:13;;;;;;;17.27;7.35;;;;;;;11.85;100.00;100787.95;1643218;85;21053;-74
2022/10/14 09:08:43;;;;;;;19.02;8.03;;;;;;;11.92;100.00;100795.80;1644550;86;21076;-73
2022/10/14 09:11:14;;;;;;;19.37;8.23;;;;;;;11.99;100.00;100797.85;1581049;90;21069;-72
2022/10/14 09:13:45;;;;;;;18.48;7.92;;;;;;;12.07;100.00;100790.61;1506902;95;21129;-71
2022/10/14 09:16:21;;;;;;;46.60;27.85;;;;;;;12.16;100.00;100796.92;1506432;93;21197;-70
2022/10/14 09:18:57;;;;;;;31.20;18.12;;;;;;;12.22;100.00;100798.16;1477135;96;21594;-72
2022/10/14 09:21:38;;;;;;;22.50;8.00;;;;;;;12.27;100.00;100801.20;1486408;96;21163;-73
2022/10/14 09:24:19;;;;;;;20.75;9.80;;;;;;;12.30;100.00;100806.30;1493632;93;21070;-73
2022/10/14 09:26:52;;;;;;;17.35;7.35;;;;;;;12.33;100.00;100814.95;1501235;94;21083;-71
2022/10/14 09:29:48;;;;;;;20.10;8.83;;;;;;;12.34;100.00;100809.89;1502105;94;21159;-72
2022/10/14 09:32:37;;;;;;;17.35;7.60;;;;;;;12.39;100.00;100812.09;1506335;94;21074;-72
2022/10/14 09:35:21;;;;;;;41.25;18.17;;;;;;;12.45;100.00;100819.59;1489278;94;21118;-73
2022/10/14 09:37:48;;;;;;;38.78;18.07;;;;;;;12.52;100.00;100817.08;1525837;90;21100;-73
2022/10/14 09:40:22;;;;;;;31.17;13.20;;;;;;;12.63;100.00;100819.47;1556437;90;21161;-73
2022/10/14 09:42:58;;;;;;;22.27;9.98;;;;;;;12.72;100.00;100821.70;1537912;91;21130;-73
2022/10/14 09:45:24;;;;;;;46.80;28.10;;;;;;;12.80;100.00;100823.57;1559412;91;21033;-73
2022/10/14 09:47:58;;;;;;;237.93;120.77;;;;;;;12.93;100.00;100819.87;1551819;92;21100;-80
2022/10/14 09:50:42;;;;;;;35.33;18.37;;;;;;;13.06;100.00;100827.00;1538057;92;21093;-74
2022/10/14 09:53:17;;;;;;;35.13;16.17;;;;;;;13.14;100.00;100831.61;1534023;93;21062;-84
2022/10/14 09:55:50;;;;;;;39.58;17.65;;;;;;;13.19;100.00;100831.09;1573521;91;21109;-80
2022/10/14 09:58:18;;;;;;;;;;;;;;;13.30;100.00;100820.74;1568438;90;21159;-73
2022/10/14 10:00:45;;;;;;;33.53;14.87;;;;;;;13.45;100.00;100828.23;1569700;90;20116;-75
2022/10/14 10:03:31;;;;;;;47.73;19.40;;;;;;;13.58;100.00;100834.50;1595293;89;21661;-75
2022/10/14 10:06:05;;;;;;;26.65;10.82;;;;;;;13.62;100.00;100831.80;1536632;93;21118;-76
2022/10/14 10:08:37;;;;;;;22.90;8.80;;;;;;;13.66;100.00;100832.63;1555022;91;21143;-74
2022/10/14 10:11:12;;;;;;;18.70;7.62;;;;;;;13.71;100.00;100838.92;1617403;87;21024;-72
2022/10/14 10:13:43;;;;;;;19.15;7.28;;;;;;;13.74;100.00;100837.71;1632735;86;21064;-75
2022/10/14 10:16:25;;;;;;;15.68;7.10;;;;;;;13.81;100.00;100836.00;1653773;85;21084;-76
2022/10/14 10:18:54;;;;;;;19.17;7.57;;;;;;;13.94;100.00;100839.05;1655529;85;21076;-73
2022/10/14 10:21:28;;;;;;;16.77;6.75;;;;;;;14.09;100.00;100832.88;1663983;85;21084;-74
2022/10/14 10:24:01;;;;;;;12.60;5.90;;;;;;;14.22;100.00;100834.03;1613705;87;21057;-74
2022/10/14 10:26:33;;;;;;;20.92;8.88;;;;;;;14.30;100.00;100835.86;1617203;89;21108;-78
2022/10/14 10:29:03;;;;;;;44.80;20.00;;;;;;;14.28;100.00;100835.72;1618592;88;21508;-70
2022/10/14 10:31:50;;;;;;;26.37;12.60;;;;;;;14.41;100.00;100837.34;1592970;86;21550;-73
2022/10/14 10:35:05;;;;;;;17.35;7.80;;;;;;;14.41;100.00;100837.34;1588816;90;21149;-71
2022/10/14 10:37:59;;;;;;;14.73;6.20;;;;;;;14.60;100.00;100836.94;1589194;90;21057;-74
2022/10/14 10:40:46;;;;;;;12.80;5.50;;;;;;;14.60;100.00;100836.94;1538048;92;21144;-76
2022/10/14 10:43:52;;;;;;;11.45;5.37;;;;;;;14.71;100.00;100843.86;1561412;92;21574;-75
2022/10/14 10:46:54;;;;;;;10.25;4.53;;;;;;;14.77;100.00;100832.79;1560760;90;21039;-73
2022/10/14 10:50:03;;;;;;;66.15;38.30;;;;;;;14.99;100.00;100831.11;1558656;90;21575;-73
2022/10/14 10:52:49;;;;;;;42.98;27.02;;;;;;;14.99;100.00;100831.11;1576911;89;21151;-73
2022/10/14 10:55:28;;;;;;;18.65;9.25;;;;;;;15.16;100.00;100835.94;1556842;91;21067;-73
2022/10/14 10:58:16;;;;;;;146.10;92.72;;;;;;;15.32;100.00;100837.16;1540690;91;21067;-73
2022/10/14 11:00:49;;;;;;;256.82;229.43;;;;;;;15.52;100.00;100834.77;1569608;91;21097;-78
2022/10/14 11:03:57;;;;;;;47.27;36.28;;;;;;;15.71;100.00;100831.20;1476825;97;21620;-75
2022/10/14 11:12:33;;;;;;;9.58;4.40;;;;;;;16.05;100.00;100830.69;1489319;95;21122;-77
2022/10/14 11:15:44;;;;;;;10.30;3.90;;;;;;;16.25;100.00;100829.59;1486476;95;21165;-77
2022/10/14 11:18:36;;;;;;;6.83;3.30;;;;;;;16.43;100.00;100822.90;1513439;92;21101;-75
2022/10/14 11:21:15;;;;;;;8.80;4.33;;;;;;;16.48;100.00;100825.41;1510704;93;21150;-78
2022/10/14 11:23:58;;;;;;;8.05;3.83;;;;;;;16.48;100.00;100824.55;1518148;94;21094;-77
2022/10/14 11:26:48;;;;;;;5.58;3.30;;;;;;;16.47;100.00;100828.33;1519617;93;21110;-76
2022/10/14 11:29:45;;;;;;;13.05;5.20;;;;;;;16.40;100.00;100823.30;1482727;97;21173;-77
2022/10/14 11:32:33;;;;;;;12.93;5.33;;;;;;;16.25;100.00;100821.94;1504877;95;21161;-77
2022/10/14 11:35:25;;;;;;;14.60;5.37;;;;;;;16.05;100.00;100822.50;1514545;95;21081;-77
2022/10/14 11:38:30;;;;;;;19.40;7.10;;;;;;;16.07;100.00;100817.70;1493357;95;21133;-78
2022/10/14 11:41:11;;;;;;;10.88;4.50;;;;;;;16.17;100.00;100818.80;1513522;93;21051;-80
2022/10/14 11:44:00;;;;;;;15.00;4.10;;;;;;;16.16;100.00;100818.45;1507642;95;21092;-78
2022/10/14 11:46:34;;;;;;;12.55;5.25;;;;;;;16.18;100.00;100822.36;1490190;96;21061;-77
2022/10/14 11:49:11;;;;;;;39.55;21.45;;;;;;;16.25;100.00;100815.95;1455643;96;21132;-77